Time;durP1;ratioP1;P1;durP2;ratioP2;P2;SDS_P1;SDS_P2;PMS_P1;PMS_P2;Temp;Humidity;BMP_temperature;BMP_pressure;BME280_temperature;BME280_humidity;BME280_pressure;Samples;Min_cycle;Max_cycle;Signal;HPM_P1;HPM_P2
2021/12/22 00:02:20;;;;;;;28.38;12.48;;;1.70;98.00;;;;;;5015855;28;20057;-81
2021/12/22 00:04:49;;;;;;;22.42;11.98;;;1.70;97.80;;;;;;4999852;28;20162;-81
2021/12/22 00:07:15;;;;;;;24.67;11.50;;;1.60;97.60;;;;;;5000046;28;20049;-81
2021/12/22 00:09:42;;;;;;;20.67;10.20;;;1.50;97.40;;;;;;5015827;28;20041;-81
2021/12/22 00:12:09;;;;;;;22.25;10.40;;;1.30;97.40;;;;;;4999101;28;20490;-80
2021/12/22 00:14:35;;;;;;;19.58;11.27;;;1.10;97.60;;;;;;4999786;28;20535;-81
2021/12/22 00:17:01;;;;;;;24.73;11.07;;;1.10;97.90;;;;;;4999527;28;20054;-81
2021/12/22 00:19:27;;;;;;;21.63;10.68;;;1.10;98.00;;;;;;4983416;28;20116;-81
2021/12/22 00:21:52;;;;;;;26.20;11.07;;;1.10;97.80;;;;;;4999733;28;20457;-81
2021/12/22 00:24:18;;;;;;;24.70;11.00;;;1.10;97.80;;;;;;5015776;28;20054;-81
2021/12/22 00:26:44;;;;;;;21.63;10.52;;;0.90;97.60;;;;;;5015258;28;20425;-81
2021/12/22 00:29:11;;;;;;;24.10;11.93;;;0.80;97.80;;;;;;5015526;28;20490;-81
2021/12/22 00:31:44;;;;;;;21.08;10.60;;;0.80;97.80;;;;;;4998288;28;20081;-81
2021/12/22 00:34:16;;;;;;;27.48;10.95;;;0.80;98.00;;;;;;5016195;28;20057;-81
2021/12/22 00:36:43;;;;;;;20.67;10.13;;;0.80;98.00;;;;;;5015816;28;20049;-81
2021/12/22 00:39:09;;;;;;;19.77;10.75;;;0.70;97.90;;;;;;4999225;28;20081;-81
2021/12/22 00:41:35;;;;;;;20.98;11.10;;;0.70;97.90;;;;;;5015116;28;20096;-81
2021/12/22 00:44:00;;;;;;;22.40;9.93;;;0.70;98.00;;;;;;5015539;28;20049;-81
2021/12/22 00:46:26;;;;;;;22.20;10.40;;;0.70;98.00;;;;;;4999036;28;20473;-81
2021/12/22 00:48:52;;;;;;;23.77;10.73;;;0.70;97.90;;;;;;5014371;28;20112;-81
2021/12/22 00:51:18;;;;;;;19.90;10.02;;;0.80;97.90;;;;;;5015320;28;20076;-81
2021/12/22 00:53:44;;;;;;;19.17;10.02;;;0.80;97.80;;;;;;5015255;28;20046;-81
2021/12/22 00:56:09;;;;;;;20.63;9.85;;;0.70;97.70;;;;;;5014841;28;20382;-81
2021/12/22 00:58:35;;;;;;;20.45;9.98;;;0.80;98.10;;;;;;5015183;28;20226;-81
2021/12/22 01:01:02;;;;;;;21.63;9.98;;;0.70;98.00;;;;;;4998723;28;20045;-81
2021/12/22 01:03:28;;;;;;;26.48;10.93;;;0.70;97.80;;;;;;5015106;28;20431;-81
2021/12/22 01:05:54;;;;;;;19.90;10.30;;;0.80;97.80;;;;;;5014989;28;20037;-81
2021/12/22 01:08:20;;;;;;;22.08;10.10;;;0.80;97.70;;;;;;5014705;28;20184;-81
2021/12/22 01:10:46;;;;;;;18.70;9.88;;;0.70;97.50;;;;;;4998310;28;20081;-81
2021/12/22 01:13:14;;;;;;;17.05;9.68;;;0.60;97.60;;;;;;5014870;28;20100;-81
2021/12/22 01:15:40;;;;;;;22.95;10.88;;;0.50;97.80;;;;;;5014832;28;20421;-81
2021/12/22 01:18:28;;;;;;;22.42;9.30;;;0.50;97.90;;;;;;4998444;28;20448;-81
2021/12/22 01:23:21;;;;;;;20.58;10.50;;;0.50;97.90;;;;;;5014410;28;20064;-81
2021/12/22 01:25:48;;;;;;;22.30;10.43;;;0.50;97.80;;;;;;4981901;28;20042;-81
2021/12/22 01:28:16;;;;;;;16.23;9.60;;;0.50;97.90;;;;;;4998301;28;20192;-81
2021/12/22 01:30:45;;;;;;;17.67;9.90;;;0.50;97.80;;;;;;5014789;28;20425;-81
2021/12/22 01:33:11;;;;;;;22.40;9.57;;;0.50;97.70;;;;;;4998315;28;20049;-81
2021/12/22 01:35:37;;;;;;;25.50;9.63;;;0.40;97.80;;;;;;5014154;28;20045;-81
2021/12/22 01:38:04;;;;;;;19.90;9.90;;;0.40;97.80;;;;;;5014851;28;20053;-81
2021/12/22 01:40:31;;;;;;;18.20;9.65;;;0.30;97.70;;;;;;5014443;28;20054;-81
2021/12/22 01:42:58;;;;;;;16.00;9.05;;;0.40;97.80;;;;;;5013194;28;20053;-81
2021/12/22 01:46:06;;;;;;;19.27;9.43;;;0.20;97.80;;;;;;4998009;28;20057;-81
2021/12/22 01:51:46;;;;;;;20.38;9.52;;;0.20;98.00;;;;;;5014253;28;20054;-81
2021/12/22 01:54:42;;;;;;;19.98;9.52;;;0.30;98.00;;;;;;5014043;28;20567;-81
2021/12/22 01:57:11;;;;;;;17.77;9.30;;;0.20;97.80;;;;;;5014240;28;20569;-81
2021/12/22 01:59:38;;;;;;;20.20;9.68;;;0.50;97.90;;;;;;5014222;28;20163;-81
2021/12/22 02:02:06;;;;;;;28.23;10.60;;;0.30;98.00;;;;;;5013969;28;20397;-81
2021/12/22 02:04:32;;;;;;;19.63;9.57;;;0.30;97.80;;;;;;4997838;28;20092;-81
2021/12/22 02:06:58;;;;;;;22.50;9.73;;;0.30;97.70;;;;;;4997405;28;20089;-81
2021/12/22 02:09:56;;;;;;;17.98;9.73;;;0.10;97.60;;;;;;4997090;28;20123;-81
2021/12/22 02:12:23;;;;;;;23.65;10.25;;;0.10;97.60;;;;;;5000981;28;20046;-81
2021/12/22 02:14:49;;;;;;;24.23;9.65;;;0.10;97.80;;;;;;5013813;28;20120;-81
2021/12/22 02:17:15;;;;;;;22.05;9.93;;;0.00;97.70;;;;;;5013769;28;20129;-81
2021/12/22 02:19:45;;;;;;;19.77;9.48;;;0.00;97.70;;;;;;4965120;28;20046;-81
2021/12/22 02:22:14;;;;;;;21.10;10.30;;;0.00;97.80;;;;;;5013626;28;20386;-81
2021/12/22 02:24:49;;;;;;;24.25;10.57;;;0.00;97.80;;;;;;4997415;28;20050;-81
2021/12/22 02:27:43;;;;;;;19.10;9.15;;;0.00;97.80;;;;;;4997080;28;20365;-81
2021/12/22 02:30:15;;;;;;;23.35;9.27;;;0.00;97.70;;;;;;5013058;28;20401;-81
2021/12/22 02:35:11;;;;;;;21.70;10.82;;;0.00;97.70;;;;;;4997511;28;20069;-81
2021/12/22 02:37:43;;;;;;;20.95;10.20;;;0.00;97.60;;;;;;4997051;28;20049;-81
2021/12/22 02:40:14;;;;;;;16.73;9.65;;;0.00;97.70;;;;;;5013505;28;20093;-81
2021/12/22 02:42:42;;;;;;;18.33;9.40;;;0.00;97.60;;;;;;4997051;28;20065;-81
2021/12/22 02:45:17;;;;;;;21.17;10.18;;;0.00;97.50;;;;;;4997057;28;20053;-81
2021/12/22 02:47:43;;;;;;;22.60;9.93;;;0.10;97.60;;;;;;5012871;28;20053;-81
2021/12/22 02:50:11;;;;;;;22.08;9.43;;;0.00;97.50;;;;;;5013720;28;20346;-81
2021/12/22 02:52:56;;;;;;;22.85;10.88;;;0.00;97.60;;;;;;5013152;28;20050;-81
2021/12/22 02:55:29;;;;;;;23.13;10.43;;;0.10;97.50;;;;;;5012673;28;20447;-81
2021/12/22 02:57:59;;;;;;;23.33;10.85;;;0.00;97.40;;;;;;4982205;28;20054;-81
2021/12/22 03:03:34;;;;;;;19.50;9.93;;;-0.10;97.40;;;;;;4961637;28;20530;-81
2021/12/22 03:06:04;;;;;;;19.08;10.52;;;0.00;97.60;;;;;;4998563;28;20054;-81
2021/12/22 03:08:30;;;;;;;20.85;9.77;;;-0.20;97.40;;;;;;4981549;28;20057;-81
2021/12/22 03:10:56;;;;;;;21.35;10.65;;;0.00;97.60;;;;;;4996509;28;20041;-81
2021/12/22 03:13:23;;;;;;;24.40;10.45;;;-0.10;97.50;;;;;;5012873;28;20050;-81
2021/12/22 03:15:48;;;;;;;20.17;10.00;;;-0.10;97.50;;;;;;5012837;28;20089;-81
2021/12/22 03:18:14;;;;;;;16.05;9.02;;;-0.20;97.40;;;;;;4996296;28;20100;-81
2021/12/22 03:20:41;;;;;;;17.65;9.90;;;-0.10;97.40;;;;;;5012822;28;20046;-82
2021/12/22 03:23:07;;;;;;;20.20;9.63;;;-0.20;97.40;;;;;;4980690;28;20046;-81
2021/12/22 03:25:33;;;;;;;20.23;9.98;;;-0.20;97.50;;;;;;5012551;28;20038;-81
2021/12/22 03:28:03;;;;;;;21.98;10.68;;;-0.20;97.60;;;;;;4996522;28;20065;-81
2021/12/22 03:30:28;;;;;;;21.05;9.25;;;-0.20;97.70;;;;;;4996535;28;20085;-81
2021/12/22 03:32:54;;;;;;;20.65;10.05;;;-0.10;97.80;;;;;;5012811;28;20081;-81
2021/12/22 03:35:21;;;;;;;20.50;9.25;;;-0.10;97.60;;;;;;5012790;28;20096;-81
2021/12/22 03:37:52;;;;;;;25.20;10.75;;;-0.10;97.70;;;;;;5012753;28;20100;-81
2021/12/22 03:40:21;;;;;;;18.58;9.95;;;-0.10;97.60;;;;;;4995819;28;20053;-81
2021/12/22 03:42:47;;;;;;;21.58;10.70;;;0.00;97.60;;;;;;5012599;28;20128;-81
2021/12/22 03:45:14;;;;;;;21.27;10.50;;;0.00;97.50;;;;;;5013106;28;20054;-81
2021/12/22 03:47:40;;;;;;;18.40;9.43;;;0.20;97.60;;;;;;5012398;28;20053;-81
2021/12/22 03:50:08;;;;;;;24.38;10.77;;;-0.10;97.60;;;;;;5012563;28;20038;-81
2021/12/22 03:52:35;;;;;;;19.15;9.27;;;-0.10;97.80;;;;;;5012525;28;20085;-81
2021/12/22 03:55:01;;;;;;;20.05;10.15;;;-0.30;97.70;;;;;;5011505;28;20053;-81
2021/12/22 03:57:28;;;;;;;23.40;10.55;;;0.00;97.70;;;;;;4996280;28;20133;-82
2021/12/22 03:59:57;;;;;;;21.23;10.43;;;-0.20;98.10;;;;;;5012481;28;20053;-82
2021/12/22 04:02:23;;;;;;;20.02;9.55;;;-0.20;98.00;;;;;;5012525;28;20050;-81
2021/12/22 04:04:50;;;;;;;21.20;10.07;;;-0.20;98.10;;;;;;5012542;28;20038;-81
2021/12/22 04:07:18;;;;;;;18.05;9.57;;;-0.20;98.10;;;;;;5016435;28;20426;-81
2021/12/22 04:09:44;;;;;;;19.40;9.50;;;0.00;98.10;;;;;;5015883;28;20054;-81
2021/12/22 04:12:10;;;;;;;18.70;9.73;;;0.20;97.90;;;;;;5016159;28;20092;-81
2021/12/22 04:14:36;;;;;;;22.42;10.45;;;0.00;97.90;;;;;;5015980;28;20050;-81
2021/12/22 04:17:02;;;;;;;23.85;10.43;;;-0.10;98.00;;;;;;5016067;28;20443;-81
2021/12/22 04:19:28;;;;;;;18.90;9.88;;;-0.10;98.00;;;;;;4999637;28;20046;-81
2021/12/22 04:21:54;;;;;;;24.50;10.48;;;-0.10;97.90;;;;;;5015924;28;20052;-81
2021/12/22 04:24:20;;;;;;;22.23;10.20;;;0.00;98.00;;;;;;5016580;28;20129;-81
2021/12/22 04:26:46;;;;;;;19.75;9.80;;;0.10;97.90;;;;;;4999105;28;20046;-81
2021/12/22 04:29:13;;;;;;;20.77;9.88;;;0.10;97.90;;;;;;5015725;28;20046;-81
2021/12/22 04:31:39;;;;;;;17.77;9.27;;;0.00;97.70;;;;;;4999556;28;20049;-81
2021/12/22 04:34:08;;;;;;;21.30;10.38;;;-0.10;97.80;;;;;;4999439;28;20046;-81
2021/12/22 04:36:36;;;;;;;21.52;10.25;;;0.00;97.80;;;;;;5015320;28;20485;-81
2021/12/22 04:39:03;;;;;;;20.25;9.25;;;0.00;97.80;;;;;;5015798;28;20072;-81
2021/12/22 04:41:29;;;;;;;21.90;10.25;;;0.10;97.70;;;;;;4998935;28;20111;-81
2021/12/22 04:43:54;;;;;;;22.83;9.85;;;0.00;97.70;;;;;;5015212;28;20057;-81
2021/12/22 04:46:21;;;;;;;21.48;11.40;;;0.00;97.60;;;;;;4999329;28;20084;-81
2021/12/22 04:48:47;;;;;;;20.80;10.35;;;-0.10;97.70;;;;;;5015222;28;20046;-81
2021/12/22 04:51:22;;;;;;;20.52;10.68;;;-0.20;97.60;;;;;;5015870;28;20042;-81
2021/12/22 04:53:53;;;;;;;24.92;10.23;;;-0.40;97.90;;;;;;5015475;28;20038;-81
2021/12/22 04:56:19;;;;;;;21.27;10.50;;;-0.40;98.10;;;;;;5014893;28;20137;-81
2021/12/22 04:58:45;;;;;;;22.75;9.25;;;-0.10;98.10;;;;;;5015220;28;20124;-81
2021/12/22 05:01:10;;;;;;;22.13;10.40;;;-0.40;98.10;;;;;;4998485;28;20042;-81
2021/12/22 05:03:36;;;;;;;21.05;10.18;;;-0.20;98.20;;;;;;5015059;28;20498;-81
2021/12/22 05:06:02;;;;;;;18.75;9.15;;;-0.50;98.20;;;;;;4982850;28;20054;-81
2021/12/22 05:08:29;;;;;;;21.05;10.50;;;-0.50;98.00;;;;;;5015078;28;20092;-81
2021/12/22 05:10:55;;;;;;;20.88;9.77;;;-0.60;98.00;;;;;;4998545;28;20046;-81
2021/12/22 05:13:21;;;;;;;25.38;10.57;;;-0.50;98.10;;;;;;4998815;28;20054;-81
2021/12/22 05:15:47;;;;;;;21.27;9.73;;;-0.60;98.00;;;;;;4998580;28;20125;-81
2021/12/22 05:18:24;;;;;;;22.35;9.25;;;-0.50;98.10;;;;;;4998352;28;20408;-81
2021/12/22 05:20:53;;;;;;;21.65;10.05;;;-0.70;98.10;;;;;;5000428;28;20058;-81
2021/12/22 05:23:19;;;;;;;21.83;9.63;;;-0.70;98.20;;;;;;5014680;28;20111;-81
2021/12/22 05:25:45;;;;;;;21.17;10.45;;;-0.60;98.20;;;;;;4997884;28;20104;-81
2021/12/22 05:28:11;;;;;;;23.25;11.00;;;-0.50;98.10;;;;;;4982245;28;20053;-81
2021/12/22 05:30:37;;;;;;;24.90;10.57;;;-0.70;98.10;;;;;;4997875;28;20045;-81
2021/12/22 05:33:03;;;;;;;23.90;10.40;;;-0.70;98.10;;;;;;5014618;28;20050;-81
2021/12/22 05:35:29;;;;;;;20.33;10.18;;;-0.60;98.10;;;;;;4998207;28;20054;-81
2021/12/22 05:37:54;;;;;;;21.55;10.50;;;-0.60;98.00;;;;;;4998528;28;20054;-81
2021/12/22 05:40:20;;;;;;;20.63;10.18;;;-0.40;98.10;;;;;;4998135;28;20050;-81
2021/12/22 05:42:46;;;;;;;20.83;10.13;;;-0.60;98.00;;;;;;4997877;28;20057;-81
2021/12/22 05:45:12;;;;;;;26.52;11.30;;;-0.50;98.00;;;;;;4997913;28;20057;-81
2021/12/22 05:47:37;;;;;;;23.77;11.30;;;-0.50;97.90;;;;;;4997248;28;20061;-81
2021/12/22 05:50:06;;;;;;;24.50;10.25;;;-0.60;97.80;;;;;;4981506;28;20096;-81
2021/12/22 05:52:32;;;;;;;24.05;10.43;;;-0.70;98.00;;;;;;4998234;28;20054;-81
2021/12/22 05:54:57;;;;;;;21.33;10.20;;;-0.70;97.90;;;;;;5013605;28;20398;-81
2021/12/22 05:57:23;;;;;;;25.80;10.10;;;-0.60;98.00;;;;;;5013537;28;20049;-81
2021/12/22 05:59:49;;;;;;;24.00;11.43;;;-0.80;98.00;;;;;;4997783;28;20490;-82
2021/12/22 06:02:14;;;;;;;23.50;10.60;;;-0.80;98.20;;;;;;4997715;28;20046;-81
2021/12/22 06:04:40;;;;;;;24.65;9.85;;;-0.80;98.10;;;;;;5014013;28;20046;-81
2021/12/22 06:07:06;;;;;;;21.75;9.88;;;-0.80;97.90;;;;;;5014180;28;20053;-81
2021/12/22 06:09:32;;;;;;;28.83;11.07;;;-0.80;98.00;;;;;;5013702;28;20042;-81
2021/12/22 06:11:58;;;;;;;23.67;10.63;;;-0.90;98.10;;;;;;5013875;28;20042;-81
2021/12/22 06:14:24;;;;;;;23.02;10.75;;;-0.90;98.10;;;;;;4997193;28;20116;-81
2021/12/22 06:16:49;;;;;;;19.92;9.80;;;-0.80;98.00;;;;;;5013715;28;20501;-82
2021/12/22 06:19:15;;;;;;;25.65;11.10;;;-0.80;97.90;;;;;;4997256;28;20042;-81
2021/12/22 06:21:41;;;;;;;28.58;12.07;;;-0.80;97.90;;;;;;5013678;28;20143;-81
2021/12/22 06:24:08;;;;;;;22.48;9.95;;;-0.80;97.70;;;;;;5013855;28;20046;-81
2021/12/22 06:26:34;;;;;;;26.75;9.73;;;-1.10;98.00;;;;;;5013148;28;20081;-81
2021/12/22 06:28:59;;;;;;;24.77;11.85;;;-1.00;98.20;;;;;;5013397;28;20060;-81
2021/12/22 06:31:25;;;;;;;28.25;11.20;;;-0.80;98.00;;;;;;5013522;28;20057;-82
2021/12/22 06:33:52;;;;;;;23.83;10.75;;;-1.00;98.10;;;;;;5013785;28;20053;-81
2021/12/22 06:36:18;;;;;;;25.80;10.75;;;-1.00;98.00;;;;;;4997278;28;20050;-82
2021/12/22 06:38:44;;;;;;;26.95;10.52;;;-1.10;98.20;;;;;;4980882;28;20054;-82
2021/12/22 06:41:09;;;;;;;31.27;11.93;;;-1.20;98.20;;;;;;5013309;28;20248;-82
2021/12/22 06:43:35;;;;;;;22.27;10.93;;;-1.30;98.30;;;;;;4997107;28;20108;-82
2021/12/22 06:46:01;;;;;;;25.42;11.48;;;-1.00;98.50;;;;;;5013333;28;20489;-82
2021/12/22 06:48:26;;;;;;;27.38;11.82;;;-1.00;98.20;;;;;;5013553;28;20041;-82
2021/12/22 06:50:52;;;;;;;23.42;10.98;;;-0.90;98.10;;;;;;4980360;28;20489;-82
2021/12/22 06:53:18;;;;;;;25.80;10.80;;;-0.70;98.00;;;;;;4980791;28;20050;-82
2021/12/22 06:55:44;;;;;;;23.80;10.35;;;-0.80;97.80;;;;;;5012714;28;20046;-82
2021/12/22 06:58:11;;;;;;;32.00;11.23;;;-0.70;97.70;;;;;;5013121;28;20461;-82
2021/12/22 07:00:36;;;;;;;29.67;12.07;;;-0.70;97.80;;;;;;5013305;28;20092;-82
2021/12/22 07:03:04;;;;;;;25.88;10.52;;;-0.80;97.60;;;;;;4996672;28;20088;-82
2021/12/22 07:05:31;;;;;;;30.38;11.73;;;-0.70;97.70;;;;;;4997415;28;20089;-82
2021/12/22 07:07:57;;;;;;;25.30;10.75;;;-0.70;97.70;;;;;;5013547;28;20046;-82
2021/12/22 07:10:23;;;;;;;26.92;11.40;;;-0.60;97.60;;;;;;4996345;28;20049;-82
2021/12/22 07:12:49;;;;;;;27.83;11.00;;;-0.70;97.50;;;;;;5012620;28;20058;-82
2021/12/22 07:15:19;;;;;;;30.40;10.35;;;-0.80;97.50;;;;;;4996593;28;20050;-82
2021/12/22 07:17:47;;;;;;;22.63;10.77;;;-0.90;97.60;;;;;;5012873;28;20046;-82
2021/12/22 07:20:15;;;;;;;29.73;11.52;;;-0.50;97.80;;;;;;5012867;28;20049;-82
2021/12/22 07:22:41;;;;;;;24.88;10.75;;;-1.00;97.70;;;;;;4980338;28;20054;-81
2021/12/22 07:25:09;;;;;;;28.00;10.35;;;-0.80;97.90;;;;;;5012884;28;20099;-81
2021/12/22 07:27:35;;;;;;;29.02;10.52;;;-1.20;98.00;;;;;;4996435;28;20061;-81
2021/12/22 07:30:00;;;;;;;23.17;10.77;;;-1.10;98.30;;;;;;4996201;28;20122;-82
2021/12/22 07:32:26;;;;;;;32.40;13.07;;;-1.10;98.10;;;;;;5013111;28;20136;-81
2021/12/22 07:34:59;;;;;;;25.20;10.10;;;-1.00;98.10;;;;;;4996874;28;20050;-82
2021/12/22 07:37:33;;;;;;;27.60;11.07;;;-0.90;98.10;;;;;;5013467;28;20050;-82
2021/12/22 07:39:59;;;;;;;26.98;11.02;;;-0.80;98.10;;;;;;5013281;28;20374;-82
2021/12/22 07:42:25;;;;;;;27.70;11.25;;;-0.90;97.90;;;;;;5016347;28;20053;-82
2021/12/22 07:44:50;;;;;;;26.85;10.65;;;-0.90;98.10;;;;;;5016461;28;20089;-82
2021/12/22 07:47:16;;;;;;;27.02;11.15;;;-0.90;98.10;;;;;;5016535;28;20133;-82
2021/12/22 07:49:42;;;;;;;22.65;11.23;;;-0.70;98.10;;;;;;4999641;28;20046;-81
2021/12/22 07:52:08;;;;;;;22.23;10.38;;;-0.90;98.00;;;;;;5016877;28;20050;-82
2021/12/22 07:54:34;;;;;;;29.75;11.23;;;-0.80;98.20;;;;;;5016347;28;20041;-81
2021/12/22 07:56:59;;;;;;;24.42;10.52;;;-0.90;98.10;;;;;;4999646;28;20050;-82
2021/12/22 07:59:25;;;;;;;23.38;10.38;;;-0.70;98.10;;;;;;5000102;28;20092;-82
2021/12/22 08:01:51;;;;;;;27.42;10.52;;;-0.80;98.10;;;;;;4983919;28;20049;-81
2021/12/22 08:04:17;;;;;;;29.42;11.07;;;-0.80;98.20;;;;;;4999714;28;20050;-82
2021/12/22 08:06:42;;;;;;;24.48;9.98;;;-0.60;98.10;;;;;;5000254;28;20092;-82
2021/12/22 08:09:08;;;;;;;22.92;10.50;;;-0.90;98.10;;;;;;4999702;28;20099;-82
2021/12/22 08:11:34;;;;;;;25.25;11.27;;;-0.80;98.20;;;;;;4983561;28;20065;-82
2021/12/22 08:14:00;;;;;;;26.10;10.82;;;-0.90;98.10;;;;;;4983535;28;20061;-82
2021/12/22 08:16:26;;;;;;;27.80;10.52;;;-0.80;98.10;;;;;;4983525;28;20053;-82
2021/12/22 08:18:51;;;;;;;26.17;11.13;;;-0.90;98.10;;;;;;4983465;28;20072;-80
2021/12/22 08:21:17;;;;;;;29.30;11.32;;;-0.90;98.20;;;;;;4983417;28;20054;-73
2021/12/22 08:23:43;;;;;;;27.05;11.70;;;-0.90;98.30;;;;;;4999515;28;20529;-74
2021/12/22 08:26:09;;;;;;;25.50;11.15;;;-0.90;98.30;;;;;;4999633;28;20504;-75
2021/12/22 08:28:35;;;;;;;30.80;11.18;;;-0.90;98.50;;;;;;5015789;28;20069;-73
2021/12/22 08:31:00;;;;;;;24.02;10.65;;;-0.90;98.50;;;;;;4999068;28;20089;-74
2021/12/22 08:33:30;;;;;;;27.50;10.82;;;-0.80;98.60;;;;;;5016501;28;20454;-74
2021/12/22 08:38:53;;;;;;;25.45;10.65;;;-0.70;98.50;;;;;;5015915;28;20403;-74
2021/12/22 08:41:25;;;;;;;26.15;11.60;;;-0.70;98.50;;;;;;5015185;28;20421;-72
2021/12/22 08:43:53;;;;;;;25.25;11.23;;;-0.60;98.50;;;;;;5032015;28;20116;-73
2021/12/22 08:46:19;;;;;;;26.35;11.90;;;-0.50;98.50;;;;;;5015380;28;20050;-73
2021/12/22 08:48:45;;;;;;;28.90;11.23;;;-0.50;98.50;;;;;;4999010;28;20056;-73
2021/12/22 08:51:11;;;;;;;29.70;11.88;;;-0.50;98.60;;;;;;5014429;28;20104;-72
2021/12/22 08:53:37;;;;;;;33.38;11.77;;;-0.50;98.40;;;;;;5020207;28;20042;-72
2021/12/22 08:56:04;;;;;;;33.13;12.02;;;-0.60;98.60;;;;;;5002902;28;20056;-71
2021/12/22 08:58:29;;;;;;;27.38;12.02;;;-0.50;98.50;;;;;;5016211;28;20496;-72
2021/12/22 09:00:55;;;;;;;29.45;11.68;;;-0.50;98.50;;;;;;5015344;28;20201;-71
2021/12/22 09:03:21;;;;;;;28.00;11.48;;;-0.40;98.60;;;;;;5015017;28;20049;-71
2021/12/22 09:05:47;;;;;;;35.20;13.20;;;-0.30;98.60;;;;;;4998713;28;20081;-76
2021/12/22 09:08:12;;;;;;;27.75;12.85;;;-0.20;98.50;;;;;;4998825;28;20440;-70
2021/12/22 09:10:38;;;;;;;31.50;12.05;;;-0.20;98.60;;;;;;5014386;28;20054;-71
2021/12/22 09:13:04;;;;;;;31.27;11.68;;;-0.20;98.50;;;;;;5015816;28;20125;-71
2021/12/22 09:15:30;;;;;;;26.42;11.93;;;0.00;98.60;;;;;;5031454;28;20396;-72
2021/12/22 09:17:55;;;;;;;28.00;12.00;;;0.10;98.40;;;;;;5016408;28;20053;-74
2021/12/22 09:20:22;;;;;;;30.27;11.18;;;0.20;98.40;;;;;;5014577;28;20042;-75
2021/12/22 09:22:47;;;;;;;29.98;11.98;;;0.30;98.20;;;;;;5015007;28;20050;-73
2021/12/22 09:25:13;;;;;;;27.15;11.77;;;0.30;98.20;;;;;;5014782;28;20056;-74
2021/12/22 09:27:39;;;;;;;29.40;12.32;;;0.40;98.20;;;;;;5014253;28;20046;-73
2021/12/22 09:30:06;;;;;;;24.27;10.57;;;0.40;98.10;;;;;;5015722;28;20355;-73
2021/12/22 09:32:32;;;;;;;28.92;11.65;;;0.30;98.10;;;;;;5014228;28;20053;-71
2021/12/22 09:34:58;;;;;;;29.27;11.38;;;0.40;98.20;;;;;;5015123;28;20054;-72
2021/12/22 09:37:23;;;;;;;24.55;10.82;;;0.40;98.20;;;;;;4998092;28;20132;-70
2021/12/22 09:39:49;;;;;;;24.70;10.52;;;0.40;98.20;;;;;;5014366;28;20104;-71
2021/12/22 09:42:15;;;;;;;26.05;11.07;;;0.40;98.40;;;;;;5015266;28;20429;-71
2021/12/22 09:44:46;;;;;;;29.08;12.10;;;0.30;98.20;;;;;;5014785;28;20042;-71
2021/12/22 09:47:14;;;;;;;27.98;11.57;;;0.30;98.50;;;;;;5014516;28;20049;-71
2021/12/22 09:52:19;;;;;;;30.38;12.57;;;0.30;98.80;;;;;;5013951;28;20054;-71
2021/12/22 09:54:48;;;;;;;32.33;12.13;;;0.30;98.70;;;;;;5014183;28;20045;-71
2021/12/22 09:57:17;;;;;;;29.77;12.10;;;0.30;98.60;;;;;;5014632;28;20088;-71
2021/12/22 09:59:43;;;;;;;29.77;12.15;;;0.40;98.60;;;;;;5014185;28;20061;-71
2021/12/22 10:02:10;;;;;;;27.60;11.45;;;0.40;98.60;;;;;;5013750;28;20049;-72
2021/12/22 10:04:35;;;;;;;26.73;11.63;;;0.40;98.50;;;;;;5014807;28;20046;-74
2021/12/22 10:07:01;;;;;;;26.08;11.57;;;0.40;98.40;;;;;;5014084;28;20526;-71
2021/12/22 10:09:29;;;;;;;29.20;11.13;;;0.40;98.60;;;;;;4997451;28;20042;-73
2021/12/22 10:11:54;;;;;;;29.70;11.18;;;0.40;98.70;;;;;;5013876;28;20054;-77
2021/12/22 10:14:27;;;;;;;24.75;11.20;;;0.30;98.70;;;;;;4997481;28;20100;-76
2021/12/22 10:16:56;;;;;;;30.10;12.05;;;0.50;98.80;;;;;;5013876;28;20073;-75
2021/12/22 10:19:25;;;;;;;24.75;10.73;;;0.60;98.80;;;;;;5013719;28;20176;-75
2021/12/22 10:22:00;;;;;;;30.08;11.60;;;0.60;98.70;;;;;;5013656;28;20057;-74
2021/12/22 10:24:59;;;;;;;26.80;10.93;;;0.70;98.60;;;;;;5013980;28;20057;-76
2021/12/22 10:27:26;;;;;;;23.75;10.35;;;0.80;98.60;;;;;;5016248;28;20041;-75
2021/12/22 10:29:52;;;;;;;28.65;11.35;;;0.80;98.80;;;;;;5013280;28;20128;-75
2021/12/22 10:32:18;;;;;;;22.00;10.38;;;1.00;98.60;;;;;;5013528;28;20085;-75
2021/12/22 10:34:59;;;;;;;30.10;10.88;;;1.10;98.50;;;;;;5013469;28;20053;-75
2021/12/22 10:37:38;;;;;;;28.30;12.23;;;1.40;98.40;;;;;;5013566;28;20405;-76
2021/12/22 10:40:28;;;;;;;27.48;11.50;;;1.20;98.20;;;;;;5013677;28;20054;-74
2021/12/22 10:42:55;;;;;;;27.48;10.90;;;1.30;98.50;;;;;;5012991;28;20096;-77
2021/12/22 10:45:23;;;;;;;28.23;10.93;;;1.20;98.20;;;;;;5013205;28;20505;-73
2021/12/22 10:50:44;;;;;;;25.20;10.35;;;1.10;98.30;;;;;;4997807;28;20061;-76
2021/12/22 10:53:14;;;;;;;28.55;10.85;;;1.50;99.40;;;;;;5013075;28;20121;-73
2021/12/22 10:55:48;;;;;;;26.77;11.60;;;1.60;98.40;;;;;;5015196;28;20064;-75
2021/12/22 10:58:17;;;;;;;32.10;11.45;;;1.50;98.00;;;;;;5013568;28;20410;-74
2021/12/22 11:00:42;;;;;;;21.65;10.65;;;1.60;98.10;;;;;;5014063;28;20053;-72
2021/12/22 11:03:13;;;;;;;26.15;10.15;;;1.60;98.00;;;;;;4997174;28;20050;-73
2021/12/22 11:05:47;;;;;;;27.33;11.57;;;1.50;97.90;;;;;;5013284;28;20065;-73
2021/12/22 11:08:23;;;;;;;26.00;10.70;;;1.30;98.20;;;;;;5012982;28;20081;-74
2021/12/22 11:10:52;;;;;;;24.25;10.02;;;1.20;98.50;;;;;;5012648;28;20473;-75
2021/12/22 11:13:20;;;;;;;23.08;9.95;;;1.10;98.30;;;;;;5013022;28;20512;-76
2021/12/22 11:15:45;;;;;;;22.58;10.43;;;1.20;98.60;;;;;;5011764;28;20517;-75
2021/12/22 11:18:31;;;;;;;24.10;10.85;;;1.20;98.50;;;;;;5013036;28;20049;-75
2021/12/22 11:21:33;;;;;;;24.08;11.02;;;1.30;98.70;;;;;;4996593;28;20489;-80
2021/12/22 11:23:59;;;;;;;22.27;10.30;;;1.60;98.50;;;;;;5006411;28;20057;-74
2021/12/22 11:26:25;;;;;;;24.70;10.57;;;1.40;98.30;;;;;;5012375;28;20056;-74
2021/12/22 11:28:50;;;;;;;19.35;9.52;;;1.30;98.30;;;;;;5012666;28;20049;-74
2021/12/22 11:31:16;;;;;;;29.95;11.95;;;1.20;98.50;;;;;;5012867;28;20050;-74
2021/12/22 11:33:45;;;;;;;24.02;10.55;;;1.30;98.50;;;;;;5012781;28;20133;-74
2021/12/22 11:36:12;;;;;;;21.95;9.45;;;1.40;98.40;;;;;;5012722;28;20061;-76
2021/12/22 11:38:40;;;;;;;21.23;9.15;;;1.50;98.40;;;;;;5012463;28;20478;-80
2021/12/22 11:41:13;;;;;;;25.38;9.88;;;1.90;98.30;;;;;;4996549;28;20057;-73
2021/12/22 11:43:43;;;;;;;20.75;10.25;;;2.10;98.10;;;;;;4995787;28;20058;-72
2021/12/22 11:46:10;;;;;;;22.83;9.40;;;1.90;97.80;;;;;;5012475;28;20057;-70
2021/12/22 11:48:38;;;;;;;21.40;9.63;;;1.90;98.00;;;;;;5012576;28;20050;-72
2021/12/22 11:51:25;;;;;;;21.30;10.15;;;2.00;97.70;;;;;;5016451;28;20180;-71
2021/12/22 11:53:59;;;;;;;24.27;10.60;;;1.80;98.10;;;;;;5013794;28;20050;-70
2021/12/22 11:56:39;;;;;;;18.40;9.20;;;1.80;97.90;;;;;;5011941;28;20085;-71
2021/12/22 11:59:06;;;;;;;24.67;11.02;;;1.50;98.00;;;;;;5012242;28;20139;-72
2021/12/22 12:01:31;;;;;;;25.95;10.85;;;1.50;98.10;;;;;;4996328;28;20500;-71
2021/12/22 12:04:12;;;;;;;23.48;10.77;;;1.30;98.30;;;;;;5028530;28;20243;-69
2021/12/22 12:06:49;;;;;;;23.55;11.65;;;1.40;98.60;;;;;;5031736;28;20122;-70
2021/12/22 12:09:20;;;;;;;21.48;10.25;;;1.60;98.50;;;;;;5046368;28;20046;-72
2021/12/22 12:11:50;;;;;;;25.00;10.73;;;1.80;98.20;;;;;;5031674;28;20053;-72
2021/12/22 12:14:36;;;;;;;18.92;9.52;;;1.90;98.10;;;;;;5032038;28;20050;-73
2021/12/22 12:23:27;;;;;;;20.92;9.98;;;1.70;98.20;;;;;;5032592;28;20056;-72
2021/12/22 12:25:54;;;;;;;20.38;9.23;;;1.60;98.10;;;;;;5015964;28;20064;-72
2021/12/22 12:28:22;;;;;;;22.83;9.23;;;1.30;98.30;;;;;;5035539;28;20061;-72
2021/12/22 12:30:48;;;;;;;22.98;10.52;;;1.30;98.30;;;;;;5035061;28;20501;-72
2021/12/22 12:33:20;;;;;;;22.88;9.88;;;1.40;98.60;;;;;;5036476;28;20132;-72
2021/12/22 12:36:08;;;;;;;19.75;9.77;;;1.50;98.50;;;;;;5035428;28;20120;-75
2021/12/22 12:38:39;;;;;;;23.95;9.75;;;1.60;98.70;;;;;;5035029;28;20538;-71
2021/12/22 12:41:19;;;;;;;23.52;9.57;;;1.70;98.40;;;;;;5035368;28;20085;-71
2021/12/22 12:43:49;;;;;;;20.30;9.27;;;1.90;98.10;;;;;;5034925;28;20401;-71
2021/12/22 12:46:21;;;;;;;21.17;9.73;;;1.90;98.30;;;;;;5035253;28;20045;-70
2021/12/22 12:48:48;;;;;;;22.50;9.40;;;1.70;98.40;;;;;;5034827;28;20079;-71
2021/12/22 12:51:14;;;;;;;19.15;9.00;;;2.10;98.10;;;;;;5035034;28;20513;-74
2021/12/22 12:53:48;;;;;;;19.17;8.95;;;2.30;97.70;;;;;;5034746;28;20412;-73
2021/12/22 12:56:16;;;;;;;19.17;8.95;;;2.40;97.50;;;;;;5034549;28;20053;-72
2021/12/22 12:58:59;;;;;;;18.63;9.00;;;2.50;97.80;;;;;;5035559;28;20136;-73
2021/12/22 13:01:58;;;;;;;17.15;8.43;;;2.90;97.30;;;;;;5031286;28;20046;-72
2021/12/22 13:04:30;;;;;;;18.33;8.57;;;3.00;97.10;;;;;;4992820;28;20050;-72
2021/12/22 13:07:02;;;;;;;18.08;8.98;;;3.10;96.90;;;;;;5015272;28;20053;-72
2021/12/22 13:09:40;;;;;;;17.42;8.40;;;3.30;96.90;;;;;;4998692;28;20065;-72